Aérodrome :
LOGIN :

S'inscrire | Disclaimer

   EN    FR    IT 

 










Légende :    VFR   VFR Marginal   IFR   IFR Intensif   IFR Très Intensif
Visi : 
Plafond : 
>= 8 km
>= 3000ft
5 à 8 km
1000 à 3000 ft
1500m à 5 km
500 à 1000 ft
800 à 1500m
200 à 500 ft
< 800m
< 200 ft
Symboles :   Orages  Brouillard  Fortes neiges  Fortes précipitations  Vent > 20 kt
SIGMETs :   Divers  Orages  Givrage  Turbulence  Onde Orograph.  Cendres Volcan.







- Altitude de l'aérodrome : 796 ft
- Code IATA : SYT
- Voir les cartes d'approche


LFLN - Saint-Yan

DERNIER METAR :
  • 240930Z AUTO 05005KT 360V090 CAVOK 22/13 Q1024 NOSIG

METARs EXPIRÉS :
  • 240900Z AUTO 03004KT 360V100 CAVOK 21/13 Q1025 NOSIG
  • 240830Z AUTO 03003KT 330V110 CAVOK 20/14 Q1025 NOSIG
  • 240800Z AUTO VRB02KT CAVOK 18/14 Q1025 NOSIG
  • 240730Z AUTO VRB01KT CAVOK 16/14 Q1025 NOSIG
  • 240700Z AUTO VRB02KT 9999 SCT003 15/14 Q1025 NOSIG

TAF TAF LFLN
Valide du 24 à 09h jusqu'au 24 à 18h UTC


240800Z 2409/2418 01005KT CAVOK
Pas de NOTAMs connus pour ce terrain.



MET'MAP, la Météo Aéronautique d'un coup d'oeil ! - Copyright ORBIFLY Décembre 2007 - Disclaimer

ORBIFLY MET'MAP TEAM :

Programmation & Développement : Alexandra Zaïnal
Conception & Développement : Baudouin d'Aumeries
Co-Programmation & Développement : Marc-Olivier Méhu
Soutien technique & logistique : Manuel Goepfert

Contact : metmap@orbifly.com




SOURCES & CREDITS :

   NOAA